createdAt,value
2018-09-08T00:01:15.632Z,7.07
2018-09-08T00:03:44.966Z,7.53
2018-09-08T00:06:14.705Z,7.73
2018-09-08T00:08:44.933Z,7.30
2018-09-08T00:11:14.901Z,8.30
2018-09-08T00:13:44.238Z,8.50
2018-09-08T00:16:18.638Z,8.30
2018-09-08T00:18:52.798Z,8.57
2018-09-08T00:21:34.611Z,7.20
2018-09-08T00:24:08.916Z,7.60
2018-09-08T00:26:38.735Z,6.87
2018-09-08T00:29:18.867Z,6.40
2018-09-08T00:31:48.615Z,7.13
2018-09-08T00:34:17.843Z,6.67
2018-09-08T00:36:47.490Z,6.60
2018-09-08T00:39:18.767Z,6.60
2018-09-08T00:41:49.465Z,6.97
2018-09-08T00:44:19.443Z,6.67
2018-09-08T00:46:48.819Z,6.60
2018-09-08T00:49:24.010Z,8.03
2018-09-08T00:52:02.331Z,7.60
2018-09-08T00:57:22.317Z,8.17
2018-09-08T01:00:00.939Z,7.37
2018-09-08T01:02:37.557Z,8.07
2018-09-08T01:10:38.571Z,8.97
2018-09-08T01:13:14.958Z,9.67
2018-09-08T01:15:54.577Z,9.03
2018-09-08T01:18:30.684Z,8.70
2018-09-08T01:21:10.349Z,8.60
2018-09-08T01:23:57.682Z,7.90
2018-09-08T01:26:31.695Z,7.70
2018-09-08T01:29:06.644Z,8.47
2018-09-08T01:34:52.460Z,7.27
2018-09-08T01:40:14.801Z,7.33
2018-09-08T01:42:43.595Z,7.47
2018-09-08T01:45:12.368Z,8.13
2018-09-08T01:47:41.763Z,8.87
2018-09-08T01:50:10.476Z,8.83
2018-09-08T01:52:39.270Z,9.23
2018-09-08T01:55:08.039Z,9.33
2018-09-08T01:57:36.838Z,8.40
2018-09-08T02:00:06.494Z,8.50
2018-09-08T02:02:35.268Z,9.37
2018-09-08T02:05:04.058Z,9.67
2018-09-08T02:07:32.829Z,9.60
2018-09-08T02:10:01.582Z,10.30
2018-09-08T02:12:30.343Z,9.23
2018-09-08T02:14:59.117Z,9.73
2018-09-08T02:17:27.889Z,9.27
2018-09-08T02:19:56.648Z,8.97
2018-09-08T02:22:25.545Z,9.73
2018-09-08T02:24:54.536Z,9.40
2018-09-08T02:27:23.313Z,10.37
2018-09-08T02:29:52.053Z,8.93
2018-09-08T02:32:20.860Z,7.87
2018-09-08T02:34:49.615Z,6.87
2018-09-08T02:37:18.501Z,8.10
2018-09-08T02:39:47.212Z,8.13
2018-09-08T02:42:16.054Z,8.57
2018-09-08T02:44:44.932Z,8.80
2018-09-08T02:47:13.731Z,8.23
2018-09-08T02:49:53.814Z,8.53
2018-09-08T02:52:21.306Z,9.07
2018-09-08T02:54:48.812Z,10.00
2018-09-08T02:57:16.339Z,9.50
2018-09-08T02:59:43.874Z,7.73
2018-09-08T03:02:11.369Z,7.93
2018-09-08T03:04:38.867Z,7.50
2018-09-08T03:07:14.983Z,10.33
2018-09-08T03:09:44.913Z,9.50
2018-09-08T03:12:12.438Z,9.53
2018-09-08T03:14:39.934Z,9.23
2018-09-08T03:17:08.250Z,10.70
2018-09-08T03:19:35.769Z,9.47
2018-09-08T03:22:03.286Z,10.27
2018-09-08T03:24:30.839Z,10.13
2018-09-08T03:26:58.344Z,10.33
2018-09-08T03:29:25.882Z,9.90
2018-09-08T03:31:53.392Z,9.93
2018-09-08T03:34:20.896Z,10.50
2018-09-08T03:36:48.451Z,9.37
2018-09-08T03:39:16.012Z,9.43
2018-09-08T03:41:43.554Z,10.07
2018-09-08T03:44:11.110Z,10.27
2018-09-08T03:46:38.968Z,10.13
2018-09-08T03:49:06.549Z,12.10
2018-09-08T03:51:34.065Z,12.53
2018-09-08T03:54:01.641Z,12.10
2018-09-08T03:56:29.164Z,11.53
2018-09-08T03:58:56.807Z,11.27
2018-09-08T04:01:24.304Z,11.03
2018-09-08T04:03:53.350Z,10.47
2018-09-08T04:06:22.308Z,11.00
2018-09-08T04:08:51.182Z,9.23
2018-09-08T04:11:20.215Z,10.33
2018-09-08T04:13:49.618Z,10.07
2018-09-08T04:16:18.828Z,12.17
2018-09-08T04:18:47.993Z,13.03
2018-09-08T04:21:17.034Z,12.10
2018-09-08T04:23:45.992Z,10.97
2018-09-08T04:26:14.946Z,11.63
2018-09-08T04:28:44.131Z,11.47
2018-09-08T04:31:13.180Z,11.93
2018-09-08T04:33:42.107Z,12.63
2018-09-08T04:36:11.171Z,13.67
2018-09-08T04:38:40.089Z,11.03
2018-09-08T04:41:08.599Z,10.83
2018-09-08T04:43:37.635Z,10.33
2018-09-08T04:46:06.849Z,11.50
2018-09-08T04:48:35.804Z,11.67
2018-09-08T04:51:04.641Z,10.67
2018-09-08T04:53:33.719Z,12.77
2018-09-08T04:56:02.675Z,12.67
2018-09-08T04:58:31.734Z,11.63
2018-09-08T05:01:00.681Z,10.40
2018-09-08T05:03:29.783Z,10.80
2018-09-08T05:05:59.056Z,11.13
2018-09-08T05:08:28.165Z,11.93
2018-09-08T05:10:57.189Z,12.80
2018-09-08T05:13:26.017Z,10.57
2018-09-08T05:15:54.922Z,10.87
2018-09-08T05:18:23.755Z,10.03
2018-09-08T05:20:52.607Z,10.27
2018-09-08T05:23:21.457Z,9.93
2018-09-08T05:25:50.382Z,9.60
2018-09-08T05:28:19.298Z,10.90
2018-09-08T05:30:48.232Z,10.00
2018-09-08T05:33:17.101Z,9.37
2018-09-08T05:35:45.998Z,8.73
2018-09-08T05:38:14.797Z,10.13
2018-09-08T05:40:43.651Z,7.80
2018-09-08T05:43:12.572Z,8.47
2018-09-08T05:45:41.332Z,8.10
2018-09-08T05:48:10.065Z,7.13
2018-09-08T05:50:38.920Z,6.17
2018-09-08T05:53:09.406Z,6.67
2018-09-08T05:55:38.450Z,6.43
2018-09-08T05:58:07.571Z,6.37
2018-09-08T06:00:36.464Z,6.60
2018-09-08T06:03:06.126Z,6.03
2018-09-08T06:05:36.713Z,6.93
2018-09-08T06:08:08.394Z,7.40
2018-09-08T06:10:38.039Z,7.07
2018-09-08T06:13:07.227Z,5.70
2018-09-08T06:15:36.717Z,5.92
2018-09-08T06:18:09.191Z,6.80
2018-09-08T06:20:39.085Z,6.37
2018-09-08T06:23:08.847Z,7.42
2018-09-08T06:25:38.901Z,6.65
2018-09-08T06:28:08.715Z,6.45
2018-09-08T06:30:38.009Z,5.40
2018-09-08T06:33:07.165Z,6.47
2018-09-08T06:35:37.070Z,6.33
2018-09-08T06:38:06.182Z,6.62
2018-09-08T06:40:37.678Z,6.85
2018-09-08T06:43:11.935Z,6.10
2018-09-08T06:45:41.455Z,5.80
2018-09-08T06:48:18.920Z,5.97
2018-09-08T06:50:54.604Z,5.90
2018-09-08T06:53:23.814Z,6.42
2018-09-08T06:55:54.187Z,5.40
2018-09-08T06:58:23.706Z,5.55
2018-09-08T07:00:53.172Z,5.53
2018-09-08T07:03:22.196Z,5.75
2018-09-08T07:05:51.175Z,5.42
2018-09-08T07:08:20.153Z,5.03
2018-09-08T07:10:49.336Z,5.30
2018-09-08T07:13:19.383Z,5.67
2018-09-08T07:15:48.478Z,5.90
2018-09-08T07:18:18.529Z,5.30
2018-09-08T07:20:48.369Z,5.67
2018-09-08T07:23:17.974Z,5.80
2018-09-08T07:25:50.929Z,5.40
2018-09-08T07:28:21.051Z,5.67
2018-09-08T07:30:51.149Z,5.90
2018-09-08T07:33:22.042Z,5.42
2018-09-08T07:35:52.848Z,6.47
2018-09-08T07:38:25.224Z,5.50
2018-09-08T07:40:59.483Z,5.47
2018-09-08T07:43:30.366Z,5.30
2018-09-08T07:46:00.079Z,4.67
2018-09-08T07:48:44.503Z,5.55
2018-09-08T07:51:18.953Z,5.70
2018-09-08T07:56:48.183Z,4.60
2018-09-08T07:59:18.993Z,4.83
2018-09-08T08:01:59.964Z,4.60
2018-09-08T08:04:42.001Z,4.87
2018-09-08T08:07:16.311Z,4.58
2018-09-08T08:09:47.782Z,4.55
2018-09-08T08:12:23.270Z,4.42
2018-09-08T08:14:56.541Z,4.85
2018-09-08T08:20:10.530Z,4.08
2018-09-08T08:22:46.021Z,10.10
2018-09-08T08:25:16.562Z,4.55
2018-09-08T08:27:53.475Z,4.72
2018-09-08T08:30:31.033Z,4.25
2018-09-08T08:33:00.794Z,3.70
2018-09-08T08:35:41.390Z,3.50
2018-09-08T08:38:20.995Z,3.70
2018-09-08T08:41:04.952Z,3.62
2018-09-08T08:46:32.137Z,2.77
2018-09-08T08:49:12.747Z,2.67
2018-09-08T08:54:37.390Z,2.75
2018-09-08T08:57:12.350Z,3.52
2018-09-08T08:59:45.096Z,3.80
2018-09-08T09:02:34.208Z,3.60
2018-09-08T09:05:05.377Z,3.20
2018-09-08T09:07:42.026Z,3.67
2018-09-08T09:10:12.840Z,2.90
2018-09-08T09:12:52.137Z,2.70
2018-09-08T09:15:22.122Z,3.02
2018-09-08T09:17:51.298Z,2.20
2018-09-08T09:20:31.143Z,2.15
2018-09-08T09:25:17.157Z,3.40
2018-09-08T09:27:52.167Z,2.62
2018-09-08T09:30:26.649Z,2.60
2018-09-08T09:32:57.860Z,3.20
2018-09-08T09:35:36.388Z,3.85
2018-09-08T09:38:14.355Z,2.50
2018-09-08T09:40:54.228Z,1.90
2018-09-08T09:43:25.217Z,2.05
2018-09-08T09:45:56.482Z,2.05
2018-09-08T09:48:27.358Z,1.87
2018-09-08T09:51:02.580Z,1.40
2018-09-08T09:53:31.895Z,1.67
2018-09-08T09:56:03.395Z,1.75
2018-09-08T09:58:32.791Z,2.00
2018-09-08T10:01:11.524Z,1.60
2018-09-08T10:03:41.801Z,1.87
2018-09-08T10:06:10.398Z,1.80
2018-09-08T10:08:38.966Z,1.82
2018-09-08T10:11:07.599Z,1.60
2018-09-08T10:13:36.278Z,1.82
2018-09-08T10:16:04.915Z,1.70
2018-09-08T10:18:33.639Z,1.15
2018-09-08T10:21:02.302Z,1.60
2018-09-08T10:23:31.273Z,1.62
2018-09-08T10:25:59.860Z,1.37
2018-09-08T10:28:28.953Z,1.50
2018-09-08T10:30:57.265Z,1.70
2018-09-08T10:33:25.946Z,1.77
2018-09-08T10:35:54.575Z,1.45
2018-09-08T10:38:23.247Z,1.72
2018-09-08T10:40:51.919Z,1.60
2018-09-08T10:43:21.861Z,1.80
2018-09-08T10:45:50.558Z,1.27
2018-09-08T10:48:19.316Z,1.35
2018-09-08T10:50:51.058Z,1.45
2018-09-08T10:53:20.188Z,1.50
2018-09-08T10:55:48.816Z,1.27
2018-09-08T10:58:17.387Z,1.40
2018-09-08T11:00:45.972Z,1.60
2018-09-08T11:03:17.075Z,1.75
2018-09-08T11:05:45.671Z,1.70
2018-09-08T11:08:14.635Z,1.77
2018-09-08T11:10:43.323Z,1.40
2018-09-08T11:13:11.964Z,2.02
2018-09-08T11:15:40.647Z,1.75
2018-09-08T11:18:10.390Z,1.50
2018-09-08T11:20:38.962Z,1.35
2018-09-08T11:23:08.559Z,1.50
2018-09-08T11:25:37.176Z,1.45
2018-09-08T11:28:06.747Z,2.05
2018-09-08T11:30:36.093Z,1.60
2018-09-08T11:33:05.005Z,1.85
2018-09-08T11:35:33.671Z,1.70
2018-09-08T11:38:02.401Z,1.62
2018-09-08T11:40:31.105Z,2.08
2018-09-08T11:42:59.764Z,1.52
2018-09-08T11:45:28.455Z,2.12
2018-09-08T11:47:57.169Z,1.67
2018-09-08T11:50:25.945Z,1.87
2018-09-08T11:52:54.625Z,2.10
2018-09-08T11:55:23.437Z,2.12
2018-09-08T11:57:52.006Z,2.10
2018-09-08T12:00:23.766Z,2.27
2018-09-08T12:02:52.408Z,1.95
2018-09-08T12:05:20.941Z,1.87
2018-09-08T12:07:50.168Z,1.55
2018-09-08T12:10:18.827Z,2.00
2018-09-08T12:12:47.435Z,1.85
2018-09-08T12:15:16.148Z,1.90
2018-09-08T12:17:45.048Z,1.75
2018-09-08T12:20:13.689Z,2.00
2018-09-08T12:22:42.258Z,1.80
2018-09-08T12:25:28.980Z,1.80
2018-09-08T12:27:57.839Z,1.57
2018-09-08T12:30:26.510Z,1.70
2018-09-08T12:32:55.108Z,1.90
2018-09-08T12:35:23.806Z,1.67
2018-09-08T12:37:52.474Z,1.80
2018-09-08T12:40:21.137Z,1.57
2018-09-08T12:42:49.823Z,2.05
2018-09-08T12:45:18.467Z,1.72
2018-09-08T12:47:47.138Z,1.75
2018-09-08T12:50:15.751Z,2.08
2018-09-08T12:52:44.332Z,1.65
2018-09-08T12:55:12.876Z,2.08
2018-09-08T12:57:41.509Z,1.65
2018-09-08T13:00:10.232Z,1.80
2018-09-08T13:02:38.897Z,1.82
2018-09-08T13:05:07.679Z,1.75
2018-09-08T13:07:36.258Z,1.65
2018-09-08T13:10:05.056Z,1.60
2018-09-08T13:12:33.724Z,1.75
2018-09-08T13:15:02.679Z,1.90
2018-09-08T13:17:31.221Z,1.80
2018-09-08T13:19:59.781Z,1.80
2018-09-08T13:22:28.327Z,1.85
2018-09-08T13:24:57.415Z,1.80
2018-09-08T13:27:25.971Z,1.90
2018-09-08T13:29:54.512Z,1.70
2018-09-08T13:32:23.051Z,1.72
2018-09-08T13:34:51.697Z,1.77
2018-09-08T13:37:20.763Z,1.95
2018-09-08T13:39:49.438Z,1.87
2018-09-08T13:42:18.079Z,1.70
2018-09-08T13:44:46.605Z,1.67
2018-09-08T13:47:15.183Z,1.95
2018-09-08T13:49:43.687Z,1.65
2018-09-08T13:52:12.224Z,1.90
2018-09-08T13:54:40.707Z,2.02
2018-09-08T13:57:09.330Z,1.80
2018-09-08T13:59:37.807Z,1.60
2018-09-08T14:02:06.412Z,1.92
2018-09-08T14:04:34.887Z,1.82
2018-09-08T14:07:03.407Z,1.60
2018-09-08T14:09:31.956Z,1.65
2018-09-08T14:12:00.505Z,1.75
2018-09-08T14:14:29.019Z,1.95
2018-09-08T14:16:57.612Z,1.60
2018-09-08T14:19:26.098Z,1.80
2018-09-08T14:21:54.636Z,1.70
2018-09-08T14:24:23.148Z,1.50
2018-09-08T14:26:51.678Z,1.82
2018-09-08T14:29:20.237Z,1.67
2018-09-08T14:31:48.821Z,1.70
2018-09-08T14:34:17.342Z,1.62
2018-09-08T14:36:45.938Z,1.42
2018-09-08T14:39:14.505Z,20.68
2018-09-08T14:41:43.080Z,1.80
2018-09-08T14:44:11.623Z,2.20
2018-09-08T14:46:40.341Z,2.22
2018-09-08T14:49:08.991Z,1.75
2018-09-08T14:51:37.548Z,2.10
2018-09-08T14:54:06.155Z,1.98
2018-09-08T14:56:34.732Z,2.12
2018-09-08T14:59:03.326Z,2.30
2018-09-08T15:01:31.942Z,29.60
2018-09-08T15:04:00.489Z,3.33
2018-09-08T15:06:29.055Z,2.70
2018-09-08T15:08:57.604Z,1.70
2018-09-08T15:11:26.156Z,1.80
2018-09-08T15:13:54.683Z,1.90
2018-09-08T15:16:23.264Z,2.15
2018-09-08T15:18:51.811Z,1.70
2018-09-08T15:21:20.379Z,1.77
2018-09-08T15:23:48.939Z,2.15
2018-09-08T15:26:17.487Z,1.55
2018-09-08T15:28:46.033Z,1.90
2018-09-08T15:31:14.599Z,2.30
2018-09-08T15:33:43.131Z,1.90
2018-09-08T15:36:12.504Z,1.95
2018-09-08T15:38:41.071Z,1.80
2018-09-08T15:41:09.561Z,2.10
2018-09-08T15:43:38.107Z,2.08
2018-09-08T15:46:06.651Z,1.85
2018-09-08T15:48:35.180Z,1.87
2018-09-08T15:51:03.699Z,2.00
2018-09-08T15:53:32.280Z,2.10
2018-09-08T15:56:00.795Z,2.30
2018-09-08T15:58:29.987Z,2.02
2018-09-08T16:00:58.435Z,2.00
2018-09-08T16:03:26.991Z,1.80
2018-09-08T16:05:55.509Z,1.85
2018-09-08T16:08:24.055Z,1.87
2018-09-08T16:10:52.618Z,2.40
2018-09-08T16:13:21.135Z,2.00
2018-09-08T16:15:49.689Z,2.25
2018-09-08T16:18:18.305Z,1.95
2018-09-08T16:20:46.816Z,2.25
2018-09-08T16:23:15.358Z,2.12
2018-09-08T16:25:43.902Z,2.40
2018-09-08T16:28:12.439Z,3.05
2018-09-08T16:30:41.363Z,10.23
2018-09-08T16:33:09.993Z,4.78
2018-09-08T16:35:38.622Z,2.50
2018-09-08T16:38:07.238Z,2.17
2018-09-08T16:40:35.871Z,1.85
2018-09-08T16:43:04.459Z,2.10
2018-09-08T16:45:33.042Z,2.40
2018-09-08T16:48:01.640Z,1.98
2018-09-08T16:50:30.235Z,2.20
2018-09-08T16:52:58.869Z,2.33
2018-09-08T16:55:27.544Z,2.10
2018-09-08T16:57:56.164Z,2.47
2018-09-08T17:00:24.829Z,2.30
2018-09-08T17:02:53.456Z,2.45
2018-09-08T17:05:22.112Z,2.35
2018-09-08T17:07:50.670Z,2.17
2018-09-08T17:10:19.295Z,2.00
2018-09-08T17:12:47.984Z,2.30
2018-09-08T17:15:16.627Z,2.10
2018-09-08T17:17:45.412Z,2.00
2018-09-08T17:20:14.159Z,2.05
2018-09-08T17:22:43.135Z,2.47
2018-09-08T17:25:11.865Z,2.10
2018-09-08T17:27:40.509Z,2.20
2018-09-08T17:30:09.126Z,4.10
2018-09-08T17:32:37.782Z,2.30
2018-09-08T17:35:06.640Z,1.95
2018-09-08T17:37:35.597Z,2.37
2018-09-08T17:40:04.312Z,2.30
2018-09-08T17:42:32.860Z,2.55
2018-09-08T17:45:01.547Z,2.40
2018-09-08T17:47:30.171Z,4.58
2018-09-08T17:49:58.831Z,3.00
2018-09-08T17:52:27.426Z,8.20
2018-09-08T17:54:56.037Z,2.77
2018-09-08T17:57:24.639Z,2.60
2018-09-08T17:59:53.190Z,2.80
2018-09-08T18:02:21.792Z,3.45
2018-09-08T18:04:50.476Z,3.35
2018-09-08T18:07:19.096Z,3.35
2018-09-08T18:09:47.929Z,3.10
2018-09-08T18:12:16.526Z,13.10
2018-09-08T18:14:45.185Z,12.63
2018-09-08T18:17:13.805Z,6.90
2018-09-08T18:19:42.424Z,3.95
2018-09-08T18:22:11.050Z,3.77
2018-09-08T18:24:39.680Z,3.50
2018-09-08T18:27:08.371Z,4.00
2018-09-08T18:29:37.027Z,4.28
2018-09-08T18:32:05.635Z,3.37
2018-09-08T18:34:34.245Z,4.50
2018-09-08T18:37:02.831Z,4.97
2018-09-08T18:39:31.396Z,4.33
2018-09-08T18:41:59.992Z,4.78
2018-09-08T18:44:28.643Z,5.12
2018-09-08T18:46:57.189Z,5.47
2018-09-08T18:49:25.721Z,5.25
2018-09-08T18:51:54.223Z,5.90
2018-09-08T18:54:22.803Z,6.05
2018-09-08T18:56:51.322Z,6.22
2018-09-08T18:59:19.847Z,5.58
2018-09-08T19:01:48.449Z,5.83
2018-09-08T19:04:16.935Z,4.60
2018-09-08T19:06:45.468Z,5.67
2018-09-08T19:09:14.003Z,5.12
2018-09-08T19:11:42.609Z,5.30
2018-09-08T19:14:15.336Z,4.37
2018-09-08T19:16:43.887Z,5.40
2018-09-08T19:19:12.459Z,4.28
2018-09-08T19:21:41.055Z,4.53
2018-09-08T19:25:14.489Z,5.10
2018-09-08T19:27:42.995Z,5.20
2018-09-08T19:30:11.569Z,6.10
2018-09-08T19:32:40.109Z,5.47
2018-09-08T19:35:14.073Z,5.10
2018-09-08T19:37:42.614Z,5.30
2018-09-08T19:40:16.491Z,5.28
2018-09-08T19:42:45.034Z,5.05
2018-09-08T19:45:13.556Z,5.43
2018-09-08T19:47:47.430Z,5.40
2018-09-08T19:50:15.975Z,5.60
2018-09-08T19:52:49.912Z,5.08
2018-09-08T19:55:18.499Z,6.00
2018-09-08T19:57:52.366Z,5.23
2018-09-08T20:00:20.920Z,5.60
2018-09-08T20:02:49.423Z,5.77
2018-09-08T20:05:17.938Z,6.03
2018-09-08T20:07:46.495Z,6.23
2018-09-08T20:10:15.004Z,5.20
2018-09-08T20:12:43.639Z,6.70
2018-09-08T20:15:12.146Z,5.53
2018-09-08T20:17:40.678Z,5.80
2018-09-08T20:20:09.203Z,5.70
2018-09-08T20:22:37.764Z,5.57
2018-09-08T20:25:06.311Z,5.97
2018-09-08T20:27:34.864Z,5.93
2018-09-08T20:30:03.479Z,6.07
2018-09-08T20:32:32.022Z,5.60
2018-09-08T20:35:00.555Z,5.87
2018-09-08T20:37:29.080Z,6.53
2018-09-08T20:39:57.753Z,6.20
2018-09-08T20:42:26.273Z,5.83
2018-09-08T20:44:54.768Z,5.70
2018-09-08T20:47:23.294Z,5.80
2018-09-08T20:49:52.104Z,6.27
2018-09-08T20:52:20.672Z,6.33
2018-09-08T20:54:49.159Z,6.10
2018-09-08T20:57:17.716Z,6.37
2018-09-08T20:59:46.227Z,6.23
2018-09-08T21:02:14.730Z,6.30
2018-09-08T21:04:43.254Z,7.00
2018-09-08T21:07:11.827Z,7.10
2018-09-08T21:09:40.854Z,7.33
2018-09-08T21:12:09.524Z,7.00
2018-09-08T21:15:00.466Z,7.57
2018-09-08T21:17:29.008Z,7.67
2018-09-08T21:19:57.502Z,7.87
2018-09-08T21:22:26.076Z,7.30
2018-09-08T21:24:54.595Z,7.70
2018-09-08T21:27:23.115Z,8.10
2018-09-08T21:29:51.632Z,7.40
2018-09-08T21:32:20.254Z,7.23
2018-09-08T21:34:48.807Z,6.80
2018-09-08T21:37:17.355Z,6.80
2018-09-08T21:39:45.910Z,6.40
2018-09-08T21:42:14.435Z,5.63
2018-09-08T21:44:42.992Z,6.40
2018-09-08T21:47:11.526Z,6.10
2018-09-08T21:49:40.084Z,6.40
2018-09-08T21:52:08.631Z,6.10
2018-09-08T21:54:37.199Z,6.43
2018-09-08T21:57:05.795Z,6.27
2018-09-08T21:59:34.347Z,6.23
2018-09-08T22:02:02.884Z,6.30
2018-09-08T22:04:31.462Z,5.83
2018-09-08T22:07:00.000Z,5.30
2018-09-08T22:09:28.581Z,6.20
2018-09-08T22:11:57.136Z,6.40
2018-09-08T22:14:25.699Z,6.57
2018-09-08T22:16:54.290Z,6.43
2018-09-08T22:19:22.872Z,6.27
2018-09-08T22:21:51.416Z,5.90
2018-09-08T22:24:19.994Z,6.80
2018-09-08T22:26:48.533Z,5.57
2018-09-08T22:29:17.130Z,6.37
2018-09-08T22:31:45.687Z,5.80
2018-09-08T22:34:14.242Z,5.90
2018-09-08T22:36:42.813Z,5.87
2018-09-08T22:39:11.388Z,6.57
2018-09-08T22:41:39.926Z,5.90
2018-09-08T22:44:08.464Z,6.80
2018-09-08T22:46:36.996Z,6.13
2018-09-08T22:49:06.287Z,6.40
2018-09-08T22:51:34.803Z,6.33
2018-09-08T22:54:03.379Z,6.13
2018-09-08T22:56:31.931Z,6.13
2018-09-08T22:59:00.499Z,6.23
2018-09-08T23:01:29.027Z,5.47
2018-09-08T23:03:57.603Z,6.70
2018-09-08T23:06:26.472Z,6.63
2018-09-08T23:08:55.040Z,6.83
2018-09-08T23:11:23.600Z,6.50
2018-09-08T23:13:53.072Z,5.83
2018-09-08T23:16:21.606Z,7.07
2018-09-08T23:18:50.157Z,6.93
2018-09-08T23:21:18.696Z,6.90
2018-09-08T23:23:47.261Z,7.60
2018-09-08T23:26:15.779Z,7.17
2018-09-08T23:28:44.290Z,6.17
2018-09-08T23:31:12.829Z,5.93
2018-09-08T23:33:41.304Z,7.73
2018-09-08T23:36:09.813Z,7.17
2018-09-08T23:38:38.325Z,6.53
2018-09-08T23:41:06.853Z,6.90
2018-09-08T23:43:35.346Z,8.13
2018-09-08T23:46:03.886Z,7.30
2018-09-08T23:48:32.393Z,6.67
2018-09-08T23:51:00.899Z,6.10
2018-09-08T23:53:29.383Z,6.90
2018-09-08T23:55:57.895Z,7.47
2018-09-08T23:58:26.398Z,6.90
